Saturday, December 20, 2014
22:58 UTC
  |  Log In   |  Register Free
Airport Search:

Clayton Municipal Airport
(11A)

Clayton Municipal Airport Diagram
No Airport Diagram Available

FAA data valid effective November 13, 2014 - January 08, 2015 (unless otherwise noted).

 
 
 
 
 
 
 
 
 
 
 
 
 
 

Current Aviation Weather for Clayton Municipal Airport (11A)

METAR data is unavailable for 11A. The nearest METAR location is at KEUF (18.6 nm NE from 11A).

The most recent METAR observation for KEUF was updated at: 2113
METAR Summary (Translated METAR)
KEUF
182058Z AUTO 00000KT 10SM OVC110 18/M01 A3009 RMK AO2 SLP189 T01781006 56015
(18.6 nm NE from 11A)
KTOI
182053Z AUTO 24003KT 10SM BKN046 16/M02 A3012 RMK AO2 SLP200 T01611017 55013
(26.9 nm SW from 11A)
TAF Summary (Translated TAF)
KTOI
(45.4 nm SW from KEUF)
202127Z 2021/2118 04005KT P6SM OVC005 FM210000 01005KT P6SM OVC010 FM210600 03003KT 5SM BR OVC005
  Airport Weather Conditions for 11A

Current weather conditions are
not available for 11A


The nearest NOAA weather station
is at EUF, (18.6 nm NE from 11A)
  
 Current Weather at EUF
53° F
Overcast
Northeast winds at 3.5 mph
EUF NOAA Radar

Pressure: 30.13 in
Humidity: 86%
Wind: Northeast at 3.5 MPH (3 KT)
Dew Point: 48.9°F
Visibility: 9.00 mi


Airport Weather Forecast for 11A

Translated METAR and TAF for KEUF
Translated METAR for KEUF (2259 UTC 20 December 2014)
found at http://aviationweather.gov/adds/metars/
 
METAR text: KEUF 202158Z AUTO 03003KT 9SM OVC006 12/09 A3013 RMK AO2 SLP200 T01170094
Conditions at: KEUF (EUFAULA , AL, US) observed 2158 UTC 20 December 2014
Temperature: 11.7°C (53°F)
Dewpoint: 9.4°C (49°F) [RH = 86%]
Pressure (altimeter): 30.13 inches Hg (1020.4 mb)
[Sea-level pressure: 1020.0 mb]
Winds: from the NNE (30 degrees) at 3 MPH (3 knots; 1.6 m/s)
Visibility: 9 miles (14 km)
Ceiling: 600 feet AGL
Clouds: overcast cloud deck at 600 feet AGL
Weather: automated observation with no human augmentation;
there may or may not be significant weather present at this time
Translated TAF for KEUF

There is no translated TAF available for this airport

Find All Airport Services Find A Hotel Find A Rental Car Find A Golf Course Find A Restaurant $100 Hamburger



FBO's on the Field
FBO Company Facility Photos Services Transportation Aviation Fuel Prices: Prices include tax
Catering Weather Repair Courtesy Rental Type 100LL JetA JetA+ MOGAS 8087
 
Add another FBO Facility Photos Catering Weather Repair Courtesy Rental Type 100LL JetA JetA+ MOGAS 8087
Services Transportation Aviation Fuel Prices: Prices include tax
There are no FBO's currently reporting fuel at 11A. List your FBO now


model-print
model-print
model-print
model-print